sensor_id;sensor_type;location;lat;lon;timestamp;P1;durP1;ratioP1;P2;durP2;ratioP2
2039;SDS011;1025;42.686;23.350;2023-07-31T00:00:57;3.30;;;3.10;;
2039;SDS011;1025;42.686;23.350;2023-07-31T00:03:24;3.40;;;3.20;;
2039;SDS011;1025;42.686;23.350;2023-07-31T00:05:50;4.87;;;4.17;;
2039;SDS011;1025;42.686;23.350;2023-07-31T00:08:17;4.87;;;3.90;;
2039;SDS011;1025;42.686;23.350;2023-07-31T00:10:43;6.00;;;3.93;;
2039;SDS011;1025;42.686;23.350;2023-07-31T00:13:11;3.60;;;3.40;;
2039;SDS011;1025;42.686;23.350;2023-07-31T00:15:37;4.27;;;3.40;;
2039;SDS011;1025;42.686;23.350;2023-07-31T00:18:04;5.70;;;4.17;;
2039;SDS011;1025;42.686;23.350;2023-07-31T00:20:30;3.27;;;3.07;;
2039;SDS011;1025;42.686;23.350;2023-07-31T00:22:57;11.07;;;3.80;;
2039;SDS011;1025;42.686;23.350;2023-07-31T00:25:23;6.63;;;3.70;;
2039;SDS011;1025;42.686;23.350;2023-07-31T00:27:50;3.90;;;3.40;;
2039;SDS011;1025;42.686;23.350;2023-07-31T00:30:18;3.87;;;3.57;;
2039;SDS011;1025;42.686;23.350;2023-07-31T00:32:44;3.70;;;3.40;;
2039;SDS011;1025;42.686;23.350;2023-07-31T00:35:11;3.80;;;3.60;;
2039;SDS011;1025;42.686;23.350;2023-07-31T00:37:37;7.83;;;4.20;;
2039;SDS011;1025;42.686;23.350;2023-07-31T00:40:04;6.23;;;4.60;;
2039;SDS011;1025;42.686;23.350;2023-07-31T00:42:31;6.63;;;4.43;;
2039;SDS011;1025;42.686;23.350;2023-07-31T00:44:57;7.83;;;4.00;;
2039;SDS011;1025;42.686;23.350;2023-07-31T00:47:25;4.37;;;4.17;;
2039;SDS011;1025;42.686;23.350;2023-07-31T00:49:52;5.53;;;4.20;;
2039;SDS011;1025;42.686;23.350;2023-07-31T00:52:18;4.60;;;4.30;;
2039;SDS011;1025;42.686;23.350;2023-07-31T00:54:45;4.57;;;4.23;;
2039;SDS011;1025;42.686;23.350;2023-07-31T00:57:12;9.20;;;5.70;;
2039;SDS011;1025;42.686;23.350;2023-07-31T00:59:38;6.07;;;5.57;;
2039;SDS011;1025;42.686;23.350;2023-07-31T01:02:05;6.57;;;5.80;;
2039;SDS011;1025;42.686;23.350;2023-07-31T01:04:33;6.93;;;6.23;;
2039;SDS011;1025;42.686;23.350;2023-07-31T01:07:02;8.07;;;7.00;;
2039;SDS011;1025;42.686;23.350;2023-07-31T01:09:34;9.00;;;8.37;;
2039;SDS011;1025;42.686;23.350;2023-07-31T01:12:03;9.07;;;8.37;;
2039;SDS011;1025;42.686;23.350;2023-07-31T01:14:30;10.73;;;9.80;;
2039;SDS011;1025;42.686;23.350;2023-07-31T01:16:56;8.43;;;7.73;;
2039;SDS011;1025;42.686;23.350;2023-07-31T01:19:24;10.40;;;9.17;;
2039;SDS011;1025;42.686;23.350;2023-07-31T01:24:38;12.93;;;11.57;;
2039;SDS011;1025;42.686;23.350;2023-07-31T01:27:10;13.20;;;12.20;;
2039;SDS011;1025;42.686;23.350;2023-07-31T01:29:38;12.83;;;11.83;;
2039;SDS011;1025;42.686;23.350;2023-07-31T01:32:08;14.33;;;13.00;;
2039;SDS011;1025;42.686;23.350;2023-07-31T01:34:35;14.67;;;13.47;;
2039;SDS011;1025;42.686;23.350;2023-07-31T01:37:03;14.67;;;13.20;;
2039;SDS011;1025;42.686;23.350;2023-07-31T01:39:29;15.73;;;14.43;;
2039;SDS011;1025;42.686;23.350;2023-07-31T01:41:56;16.83;;;15.23;;
2039;SDS011;1025;42.686;23.350;2023-07-31T01:44:24;16.30;;;14.63;;
2039;SDS011;1025;42.686;23.350;2023-07-31T01:46:50;18.50;;;16.63;;
2039;SDS011;1025;42.686;23.350;2023-07-31T01:49:16;15.97;;;14.67;;
2039;SDS011;1025;42.686;23.350;2023-07-31T01:51:43;19.20;;;17.50;;
2039;SDS011;1025;42.686;23.350;2023-07-31T01:54:09;21.43;;;19.60;;
2039;SDS011;1025;42.686;23.350;2023-07-31T01:56:36;20.57;;;18.77;;
2039;SDS011;1025;42.686;23.350;2023-07-31T01:59:02;21.77;;;19.60;;
2039;SDS011;1025;42.686;23.350;2023-07-31T02:01:30;24.80;;;21.17;;
2039;SDS011;1025;42.686;23.350;2023-07-31T02:03:57;21.63;;;19.50;;
2039;SDS011;1025;42.686;23.350;2023-07-31T02:06:23;20.63;;;18.73;;
2039;SDS011;1025;42.686;23.350;2023-07-31T02:08:50;20.53;;;18.73;;
2039;SDS011;1025;42.686;23.350;2023-07-31T02:11:16;22.23;;;20.03;;
2039;SDS011;1025;42.686;23.350;2023-07-31T02:13:43;19.77;;;17.60;;
2039;SDS011;1025;42.686;23.350;2023-07-31T02:16:09;22.13;;;19.83;;
2039;SDS011;1025;42.686;23.350;2023-07-31T02:18:37;21.90;;;19.97;;
2039;SDS011;1025;42.686;23.350;2023-07-31T02:21:04;21.97;;;20.10;;
2039;SDS011;1025;42.686;23.350;2023-07-31T02:23:30;21.53;;;19.43;;
2039;SDS011;1025;42.686;23.350;2023-07-31T02:25:57;22.23;;;19.60;;
2039;SDS011;1025;42.686;23.350;2023-07-31T02:28:23;24.03;;;21.27;;
2039;SDS011;1025;42.686;23.350;2023-07-31T02:30:50;22.00;;;19.87;;
2039;SDS011;1025;42.686;23.350;2023-07-31T02:33:16;21.03;;;19.40;;
2039;SDS011;1025;42.686;23.350;2023-07-31T02:35:44;23.10;;;20.93;;
2039;SDS011;1025;42.686;23.350;2023-07-31T02:38:11;24.53;;;20.60;;
2039;SDS011;1025;42.686;23.350;2023-07-31T02:40:38;21.87;;;19.97;;
2039;SDS011;1025;42.686;23.350;2023-07-31T02:43:05;21.60;;;19.73;;
2039;SDS011;1025;42.686;23.350;2023-07-31T02:45:31;21.90;;;19.60;;
2039;SDS011;1025;42.686;23.350;2023-07-31T02:47:58;22.33;;;20.03;;
2039;SDS011;1025;42.686;23.350;2023-07-31T02:50:24;21.43;;;19.63;;
2039;SDS011;1025;42.686;23.350;2023-07-31T02:52:54;20.73;;;18.90;;
2039;SDS011;1025;42.686;23.350;2023-07-31T02:55:20;21.73;;;19.67;;
2039;SDS011;1025;42.686;23.350;2023-07-31T02:57:47;28.90;;;20.87;;
2039;SDS011;1025;42.686;23.350;2023-07-31T03:00:13;21.33;;;19.47;;
2039;SDS011;1025;42.686;23.350;2023-07-31T03:02:40;20.97;;;18.97;;
2039;SDS011;1025;42.686;23.350;2023-07-31T03:05:06;22.67;;;20.50;;
2039;SDS011;1025;42.686;23.350;2023-07-31T03:07:33;22.40;;;20.37;;
2039;SDS011;1025;42.686;23.350;2023-07-31T03:10:01;20.03;;;18.50;;
2039;SDS011;1025;42.686;23.350;2023-07-31T03:12:27;22.13;;;20.13;;
2039;SDS011;1025;42.686;23.350;2023-07-31T03:14:54;21.50;;;19.23;;
2039;SDS011;1025;42.686;23.350;2023-07-31T03:17:20;21.70;;;19.70;;
2039;SDS011;1025;42.686;23.350;2023-07-31T03:19:47;20.37;;;18.50;;
2039;SDS011;1025;42.686;23.350;2023-07-31T03:22:13;35.70;;;21.87;;
2039;SDS011;1025;42.686;23.350;2023-07-31T03:24:40;23.17;;;21.17;;
2039;SDS011;1025;42.686;23.350;2023-07-31T03:27:08;21.00;;;19.17;;
2039;SDS011;1025;42.686;23.350;2023-07-31T03:29:34;22.90;;;20.53;;
2039;SDS011;1025;42.686;23.350;2023-07-31T03:32:01;20.07;;;18.40;;
2039;SDS011;1025;42.686;23.350;2023-07-31T03:34:27;23.23;;;19.30;;
2039;SDS011;1025;42.686;23.350;2023-07-31T03:36:54;21.97;;;19.67;;
2039;SDS011;1025;42.686;23.350;2023-07-31T03:39:20;20.40;;;18.70;;
2039;SDS011;1025;42.686;23.350;2023-07-31T03:41:48;22.13;;;20.23;;
2039;SDS011;1025;42.686;23.350;2023-07-31T03:44:22;24.03;;;21.70;;
2039;SDS011;1025;42.686;23.350;2023-07-31T03:46:48;25.10;;;22.80;;
2039;SDS011;1025;42.686;23.350;2023-07-31T03:49:15;20.33;;;18.60;;
2039;SDS011;1025;42.686;23.350;2023-07-31T03:51:41;22.50;;;20.17;;
2039;SDS011;1025;42.686;23.350;2023-07-31T03:54:08;23.90;;;21.57;;
2039;SDS011;1025;42.686;23.350;2023-07-31T03:56:34;23.20;;;21.10;;
2039;SDS011;1025;42.686;23.350;2023-07-31T03:59:01;22.97;;;20.10;;
2039;SDS011;1025;42.686;23.350;2023-07-31T04:01:32;21.17;;;19.37;;
2039;SDS011;1025;42.686;23.350;2023-07-31T04:03:59;23.53;;;21.07;;
2039;SDS011;1025;42.686;23.350;2023-07-31T04:06:26;32.50;;;22.60;;
2039;SDS011;1025;42.686;23.350;2023-07-31T04:08:53;26.33;;;23.77;;
2039;SDS011;1025;42.686;23.350;2023-07-31T04:11:23;21.40;;;19.60;;
2039;SDS011;1025;42.686;23.350;2023-07-31T04:13:50;23.40;;;21.20;;
2039;SDS011;1025;42.686;23.350;2023-07-31T04:16:16;26.10;;;23.47;;
2039;SDS011;1025;42.686;23.350;2023-07-31T04:18:44;24.87;;;22.47;;
2039;SDS011;1025;42.686;23.350;2023-07-31T04:21:11;31.20;;;22.57;;
2039;SDS011;1025;42.686;23.350;2023-07-31T04:23:38;22.47;;;20.37;;
2039;SDS011;1025;42.686;23.350;2023-07-31T04:26:04;26.27;;;23.53;;
2039;SDS011;1025;42.686;23.350;2023-07-31T04:28:31;26.60;;;23.90;;
2039;SDS011;1025;42.686;23.350;2023-07-31T04:30:57;22.80;;;20.90;;
2039;SDS011;1025;42.686;23.350;2023-07-31T04:33:24;24.53;;;22.20;;
2039;SDS011;1025;42.686;23.350;2023-07-31T04:35:52;31.33;;;28.07;;
2039;SDS011;1025;42.686;23.350;2023-07-31T04:38:19;26.10;;;23.37;;
2039;SDS011;1025;42.686;23.350;2023-07-31T04:40:46;24.20;;;21.67;;
2039;SDS011;1025;42.686;23.350;2023-07-31T04:43:12;25.50;;;21.90;;
2039;SDS011;1025;42.686;23.350;2023-07-31T04:45:39;23.37;;;21.07;;
2039;SDS011;1025;42.686;23.350;2023-07-31T04:48:05;22.00;;;19.90;;
2039;SDS011;1025;42.686;23.350;2023-07-31T04:50:32;22.33;;;20.30;;
2039;SDS011;1025;42.686;23.350;2023-07-31T04:53:00;24.10;;;21.77;;
2039;SDS011;1025;42.686;23.350;2023-07-31T04:55:26;24.73;;;22.33;;
2039;SDS011;1025;42.686;23.350;2023-07-31T04:57:53;29.33;;;23.50;;
2039;SDS011;1025;42.686;23.350;2023-07-31T05:00:18;22.43;;;19.83;;
2039;SDS011;1025;42.686;23.350;2023-07-31T05:02:45;21.37;;;19.40;;
2039;SDS011;1025;42.686;23.350;2023-07-31T05:05:11;22.73;;;19.80;;
2039;SDS011;1025;42.686;23.350;2023-07-31T05:07:40;22.47;;;20.10;;
2039;SDS011;1025;42.686;23.350;2023-07-31T05:10:08;20.60;;;18.70;;
2039;SDS011;1025;42.686;23.350;2023-07-31T05:12:35;19.10;;;17.20;;
2039;SDS011;1025;42.686;23.350;2023-07-31T05:15:02;19.30;;;17.50;;
2039;SDS011;1025;42.686;23.350;2023-07-31T05:17:28;22.17;;;18.40;;
2039;SDS011;1025;42.686;23.350;2023-07-31T05:19:55;20.50;;;18.70;;
2039;SDS011;1025;42.686;23.350;2023-07-31T05:22:21;18.20;;;16.70;;
2039;SDS011;1025;42.686;23.350;2023-07-31T05:24:48;16.57;;;15.23;;
2039;SDS011;1025;42.686;23.350;2023-07-31T05:27:15;17.93;;;16.27;;
2039;SDS011;1025;42.686;23.350;2023-07-31T05:29:43;16.73;;;15.03;;
2039;SDS011;1025;42.686;23.350;2023-07-31T05:32:10;13.57;;;12.53;;
2039;SDS011;1025;42.686;23.350;2023-07-31T05:34:36;14.53;;;13.20;;
2039;SDS011;1025;42.686;23.350;2023-07-31T05:37:03;14.03;;;12.93;;
2039;SDS011;1025;42.686;23.350;2023-07-31T05:39:29;15.30;;;13.83;;
2039;SDS011;1025;42.686;23.350;2023-07-31T05:41:56;13.93;;;12.80;;
2039;SDS011;1025;42.686;23.350;2023-07-31T05:44:24;18.20;;;16.70;;
2039;SDS011;1025;42.686;23.350;2023-07-31T05:46:50;12.70;;;11.43;;
2039;SDS011;1025;42.686;23.350;2023-07-31T05:49:17;12.90;;;12.00;;
2039;SDS011;1025;42.686;23.350;2023-07-31T05:51:43;11.60;;;10.60;;
2039;SDS011;1025;42.686;23.350;2023-07-31T05:54:10;12.97;;;10.50;;
2039;SDS011;1025;42.686;23.350;2023-07-31T05:56:36;12.30;;;10.90;;
2039;SDS011;1025;42.686;23.350;2023-07-31T05:59:03;12.17;;;11.17;;
2039;SDS011;1025;42.686;23.350;2023-07-31T06:01:31;12.73;;;10.83;;
2039;SDS011;1025;42.686;23.350;2023-07-31T06:03:58;11.00;;;9.03;;
2039;SDS011;1025;42.686;23.350;2023-07-31T06:06:24;13.60;;;10.30;;
2039;SDS011;1025;42.686;23.350;2023-07-31T06:08:51;10.70;;;9.10;;
2039;SDS011;1025;42.686;23.350;2023-07-31T06:11:17;9.50;;;8.53;;
2039;SDS011;1025;42.686;23.350;2023-07-31T06:13:44;9.40;;;8.50;;
2039;SDS011;1025;42.686;23.350;2023-07-31T06:16:12;8.17;;;7.57;;
2039;SDS011;1025;42.686;23.350;2023-07-31T06:18:40;7.40;;;6.70;;
2039;SDS011;1025;42.686;23.350;2023-07-31T06:21:06;8.50;;;7.63;;
2039;SDS011;1025;42.686;23.350;2023-07-31T06:23:33;15.63;;;8.77;;
2039;SDS011;1025;42.686;23.350;2023-07-31T06:25:59;9.07;;;7.77;;
2039;SDS011;1025;42.686;23.350;2023-07-31T06:28:27;8.20;;;6.07;;
2039;SDS011;1025;42.686;23.350;2023-07-31T06:30:54;12.50;;;6.50;;
2039;SDS011;1025;42.686;23.350;2023-07-31T06:33:20;8.47;;;6.10;;
2039;SDS011;1025;42.686;23.350;2023-07-31T06:35:48;11.90;;;6.57;;
2039;SDS011;1025;42.686;23.350;2023-07-31T06:38:15;11.33;;;5.67;;
2039;SDS011;1025;42.686;23.350;2023-07-31T06:40:41;7.07;;;6.37;;
2039;SDS011;1025;42.686;23.350;2023-07-31T06:43:08;6.10;;;5.30;;
2039;SDS011;1025;42.686;23.350;2023-07-31T06:45:35;6.07;;;5.47;;
2039;SDS011;1025;42.686;23.350;2023-07-31T06:48:01;7.80;;;5.50;;
2039;SDS011;1025;42.686;23.350;2023-07-31T06:50:29;6.27;;;5.10;;
2039;SDS011;1025;42.686;23.350;2023-07-31T06:52:57;4.90;;;4.50;;
2039;SDS011;1025;42.686;23.350;2023-07-31T06:55:22;5.10;;;4.70;;
2039;SDS011;1025;42.686;23.350;2023-07-31T06:57:50;5.27;;;4.60;;
2039;SDS011;1025;42.686;23.350;2023-07-31T07:00:17;6.60;;;4.33;;
2039;SDS011;1025;42.686;23.350;2023-07-31T07:02:44;13.33;;;7.70;;
2039;SDS011;1025;42.686;23.350;2023-07-31T07:05:12;5.10;;;4.67;;
2039;SDS011;1025;42.686;23.350;2023-07-31T07:07:39;6.97;;;4.73;;
2039;SDS011;1025;42.686;23.350;2023-07-31T07:10:07;12.53;;;5.60;;
2039;SDS011;1025;42.686;23.350;2023-07-31T07:12:34;4.90;;;4.40;;
2039;SDS011;1025;42.686;23.350;2023-07-31T07:15:01;5.47;;;4.97;;
2039;SDS011;1025;42.686;23.350;2023-07-31T07:17:28;5.60;;;5.10;;
2039;SDS011;1025;42.686;23.350;2023-07-31T07:19:56;6.87;;;5.63;;
2039;SDS011;1025;42.686;23.350;2023-07-31T07:22:22;12.57;;;5.30;;
2039;SDS011;1025;42.686;23.350;2023-07-31T07:24:49;5.27;;;4.03;;
2039;SDS011;1025;42.686;23.350;2023-07-31T07:27:17;4.47;;;3.80;;
2039;SDS011;1025;42.686;23.350;2023-07-31T07:29:43;4.13;;;3.70;;
2039;SDS011;1025;42.686;23.350;2023-07-31T07:32:10;4.17;;;3.80;;
2039;SDS011;1025;42.686;23.350;2023-07-31T07:34:37;7.27;;;5.43;;
2039;SDS011;1025;42.686;23.350;2023-07-31T07:37:03;5.90;;;5.27;;
2039;SDS011;1025;42.686;23.350;2023-07-31T07:39:30;10.37;;;5.30;;
2039;SDS011;1025;42.686;23.350;2023-07-31T07:41:56;7.50;;;6.90;;
2039;SDS011;1025;42.686;23.350;2023-07-31T07:44:24;5.30;;;4.80;;
2039;SDS011;1025;42.686;23.350;2023-07-31T07:46:51;5.87;;;3.80;;
2039;SDS011;1025;42.686;23.350;2023-07-31T07:49:18;4.97;;;4.03;;
2039;SDS011;1025;42.686;23.350;2023-07-31T07:51:47;6.33;;;4.10;;
2039;SDS011;1025;42.686;23.350;2023-07-31T07:54:14;11.07;;;5.30;;
2039;SDS011;1025;42.686;23.350;2023-07-31T07:56:41;12.43;;;6.57;;
2039;SDS011;1025;42.686;23.350;2023-07-31T07:59:08;7.23;;;4.83;;
2039;SDS011;1025;42.686;23.350;2023-07-31T08:01:36;5.07;;;4.03;;
2039;SDS011;1025;42.686;23.350;2023-07-31T08:04:02;5.07;;;3.47;;
2039;SDS011;1025;42.686;23.350;2023-07-31T08:06:29;7.73;;;5.07;;
2039;SDS011;1025;42.686;23.350;2023-07-31T08:08:55;7.00;;;3.83;;
2039;SDS011;1025;42.686;23.350;2023-07-31T08:11:22;5.73;;;4.27;;
2039;SDS011;1025;42.686;23.350;2023-07-31T08:13:48;8.77;;;4.50;;
2039;SDS011;1025;42.686;23.350;2023-07-31T08:16:15;10.83;;;4.47;;
2039;SDS011;1025;42.686;23.350;2023-07-31T08:18:43;7.87;;;4.57;;
2039;SDS011;1025;42.686;23.350;2023-07-31T08:21:09;7.43;;;4.30;;
2039;SDS011;1025;42.686;23.350;2023-07-31T08:23:36;4.43;;;4.13;;
2039;SDS011;1025;42.686;23.350;2023-07-31T08:26:02;5.50;;;4.17;;
2039;SDS011;1025;42.686;23.350;2023-07-31T08:28:29;6.80;;;4.20;;
2039;SDS011;1025;42.686;23.350;2023-07-31T08:30:55;3.93;;;3.30;;
2039;SDS011;1025;42.686;23.350;2023-07-31T08:33:22;10.50;;;6.47;;
2039;SDS011;1025;42.686;23.350;2023-07-31T08:35:50;5.67;;;3.90;;
2039;SDS011;1025;42.686;23.350;2023-07-31T08:38:16;6.73;;;4.63;;
2039;SDS011;1025;42.686;23.350;2023-07-31T08:40:42;6.67;;;4.10;;
2039;SDS011;1025;42.686;23.350;2023-07-31T08:43:09;4.90;;;3.90;;
2039;SDS011;1025;42.686;23.350;2023-07-31T08:45:35;4.63;;;3.87;;
2039;SDS011;1025;42.686;23.350;2023-07-31T08:48:03;6.63;;;4.17;;
2039;SDS011;1025;42.686;23.350;2023-07-31T08:50:29;7.30;;;4.87;;
2039;SDS011;1025;42.686;23.350;2023-07-31T08:52:57;5.70;;;3.50;;
2039;SDS011;1025;42.686;23.350;2023-07-31T08:55:24;4.57;;;3.57;;
2039;SDS011;1025;42.686;23.350;2023-07-31T08:57:51;7.20;;;4.10;;
2039;SDS011;1025;42.686;23.350;2023-07-31T09:00:17;5.20;;;4.07;;
2039;SDS011;1025;42.686;23.350;2023-07-31T09:02:46;7.33;;;5.20;;
2039;SDS011;1025;42.686;23.350;2023-07-31T09:05:12;7.40;;;4.70;;
2039;SDS011;1025;42.686;23.350;2023-07-31T09:07:39;4.77;;;3.83;;
2039;SDS011;1025;42.686;23.350;2023-07-31T09:10:07;4.80;;;4.27;;
2039;SDS011;1025;42.686;23.350;2023-07-31T09:12:34;7.70;;;4.33;;
2039;SDS011;1025;42.686;23.350;2023-07-31T09:15:01;3.60;;;3.30;;
2039;SDS011;1025;42.686;23.350;2023-07-31T09:17:28;4.47;;;4.17;;
2039;SDS011;1025;42.686;23.350;2023-07-31T09:19:55;3.10;;;2.80;;
2039;SDS011;1025;42.686;23.350;2023-07-31T09:22:25;4.57;;;4.17;;
2039;SDS011;1025;42.686;23.350;2023-07-31T09:24:57;3.93;;;3.57;;
2039;SDS011;1025;42.686;23.350;2023-07-31T09:27:32;7.90;;;3.57;;
2039;SDS011;1025;42.686;23.350;2023-07-31T09:30:11;8.80;;;3.60;;
2039;SDS011;1025;42.686;23.350;2023-07-31T09:32:50;3.70;;;3.40;;
2039;SDS011;1025;42.686;23.350;2023-07-31T09:35:20;4.67;;;4.37;;
2039;SDS011;1025;42.686;23.350;2023-07-31T09:37:50;6.63;;;3.70;;
2039;SDS011;1025;42.686;23.350;2023-07-31T09:40:27;3.83;;;2.97;;
2039;SDS011;1025;42.686;23.350;2023-07-31T09:42:57;4.27;;;3.87;;
2039;SDS011;1025;42.686;23.350;2023-07-31T09:45:24;4.33;;;4.00;;
2039;SDS011;1025;42.686;23.350;2023-07-31T09:47:51;3.67;;;3.37;;
2039;SDS011;1025;42.686;23.350;2023-07-31T09:50:17;4.90;;;3.70;;
2039;SDS011;1025;42.686;23.350;2023-07-31T09:52:44;6.50;;;4.10;;
2039;SDS011;1025;42.686;23.350;2023-07-31T09:55:11;8.57;;;4.43;;
2039;SDS011;1025;42.686;23.350;2023-07-31T09:57:38;3.70;;;3.50;;
2039;SDS011;1025;42.686;23.350;2023-07-31T10:00:07;9.60;;;4.37;;
2039;SDS011;1025;42.686;23.350;2023-07-31T10:02:35;15.17;;;3.60;;
2039;SDS011;1025;42.686;23.350;2023-07-31T10:05:03;4.13;;;2.90;;
2039;SDS011;1025;42.686;23.350;2023-07-31T10:07:29;5.33;;;3.07;;
2039;SDS011;1025;42.686;23.350;2023-07-31T10:09:56;4.63;;;2.80;;
2039;SDS011;1025;42.686;23.350;2023-07-31T10:12:24;9.80;;;4.07;;
2039;SDS011;1025;42.686;23.350;2023-07-31T10:14:53;6.57;;;3.07;;
2039;SDS011;1025;42.686;23.350;2023-07-31T10:17:21;4.03;;;2.77;;
2039;SDS011;1025;42.686;23.350;2023-07-31T10:19:48;2.90;;;2.63;;
2039;SDS011;1025;42.686;23.350;2023-07-31T10:22:15;4.97;;;3.27;;
2039;SDS011;1025;42.686;23.350;2023-07-31T10:24:43;2.50;;;2.30;;
2039;SDS011;1025;42.686;23.350;2023-07-31T10:27:11;2.77;;;2.57;;
2039;SDS011;1025;42.686;23.350;2023-07-31T10:29:37;3.40;;;3.10;;
2039;SDS011;1025;42.686;23.350;2023-07-31T10:32:05;2.93;;;2.70;;
2039;SDS011;1025;42.686;23.350;2023-07-31T10:34:36;5.63;;;2.97;;
2039;SDS011;1025;42.686;23.350;2023-07-31T10:37:22;7.07;;;2.87;;
2039;SDS011;1025;42.686;23.350;2023-07-31T10:39:58;3.43;;;2.47;;
2039;SDS011;1025;42.686;23.350;2023-07-31T10:42:32;8.53;;;3.30;;
2039;SDS011;1025;42.686;23.350;2023-07-31T10:45:00;12.97;;;5.17;;
2039;SDS011;1025;42.686;23.350;2023-07-31T10:47:27;7.07;;;3.90;;
2039;SDS011;1025;42.686;23.350;2023-07-31T10:50:07;4.23;;;2.70;;
2039;SDS011;1025;42.686;23.350;2023-07-31T10:52:36;4.30;;;4.03;;
2039;SDS011;1025;42.686;23.350;2023-07-31T10:57:48;8.93;;;3.93;;
2039;SDS011;1025;42.686;23.350;2023-07-31T11:00:18;3.50;;;2.40;;
2039;SDS011;1025;42.686;23.350;2023-07-31T11:02:48;5.77;;;2.67;;
2039;SDS011;1025;42.686;23.350;2023-07-31T11:05:23;3.30;;;2.30;;
2039;SDS011;1025;42.686;23.350;2023-07-31T11:08:10;4.37;;;3.47;;
2039;SDS011;1025;42.686;23.350;2023-07-31T11:10:36;2.33;;;2.23;;
2039;SDS011;1025;42.686;23.350;2023-07-31T11:13:03;6.20;;;2.97;;
2039;SDS011;1025;42.686;23.350;2023-07-31T11:15:30;9.93;;;5.10;;
2039;SDS011;1025;42.686;23.350;2023-07-31T11:17:56;4.47;;;2.83;;
2039;SDS011;1025;42.686;23.350;2023-07-31T11:20:25;4.23;;;2.20;;
2039;SDS011;1025;42.686;23.350;2023-07-31T11:22:51;25.03;;;6.37;;
2039;SDS011;1025;42.686;23.350;2023-07-31T11:25:18;7.83;;;3.73;;
2039;SDS011;1025;42.686;23.350;2023-07-31T11:27:45;4.50;;;3.23;;
2039;SDS011;1025;42.686;23.350;2023-07-31T11:30:11;5.63;;;3.37;;
2039;SDS011;1025;42.686;23.350;2023-07-31T11:32:38;2.60;;;2.33;;
2039;SDS011;1025;42.686;23.350;2023-07-31T11:35:05;3.23;;;2.70;;
2039;SDS011;1025;42.686;23.350;2023-07-31T11:37:41;3.73;;;2.60;;
2039;SDS011;1025;42.686;23.350;2023-07-31T11:40:08;10.17;;;3.07;;
2039;SDS011;1025;42.686;23.350;2023-07-31T11:42:35;2.97;;;2.73;;
2039;SDS011;1025;42.686;23.350;2023-07-31T11:45:02;3.53;;;2.50;;
2039;SDS011;1025;42.686;23.350;2023-07-31T11:47:29;7.30;;;3.57;;
2039;SDS011;1025;42.686;23.350;2023-07-31T11:49:56;6.23;;;3.70;;
2039;SDS011;1025;42.686;23.350;2023-07-31T11:52:22;10.53;;;5.57;;
2039;SDS011;1025;42.686;23.350;2023-07-31T11:54:50;6.30;;;3.50;;
2039;SDS011;1025;42.686;23.350;2023-07-31T11:57:17;4.90;;;2.77;;
2039;SDS011;1025;42.686;23.350;2023-07-31T11:59:44;7.40;;;3.20;;
2039;SDS011;1025;42.686;23.350;2023-07-31T12:02:11;5.13;;;3.10;;
2039;SDS011;1025;42.686;23.350;2023-07-31T12:04:38;7.37;;;4.37;;
2039;SDS011;1025;42.686;23.350;2023-07-31T12:07:04;8.40;;;3.50;;
2039;SDS011;1025;42.686;23.350;2023-07-31T12:09:31;2.70;;;2.53;;
2039;SDS011;1025;42.686;23.350;2023-07-31T12:11:59;5.90;;;4.43;;
2039;SDS011;1025;42.686;23.350;2023-07-31T12:14:26;10.80;;;5.10;;
2039;SDS011;1025;42.686;23.350;2023-07-31T12:16:54;8.47;;;4.00;;
2039;SDS011;1025;42.686;23.350;2023-07-31T12:19:20;3.37;;;3.10;;
2039;SDS011;1025;42.686;23.350;2023-07-31T12:21:47;4.70;;;3.77;;
2039;SDS011;1025;42.686;23.350;2023-07-31T12:24:13;4.73;;;4.20;;
2039;SDS011;1025;42.686;23.350;2023-07-31T12:26:40;5.80;;;4.20;;
2039;SDS011;1025;42.686;23.350;2023-07-31T12:29:12;3.63;;;3.33;;
2039;SDS011;1025;42.686;23.350;2023-07-31T12:31:40;4.80;;;4.40;;
2039;SDS011;1025;42.686;23.350;2023-07-31T12:34:15;6.47;;;4.60;;
2039;SDS011;1025;42.686;23.350;2023-07-31T12:36:41;6.00;;;5.60;;
2039;SDS011;1025;42.686;23.350;2023-07-31T12:39:08;4.03;;;3.73;;
2039;SDS011;1025;42.686;23.350;2023-07-31T12:41:35;6.77;;;6.17;;
2039;SDS011;1025;42.686;23.350;2023-07-31T12:44:02;5.97;;;5.43;;
2039;SDS011;1025;42.686;23.350;2023-07-31T12:46:30;8.63;;;5.70;;
2039;SDS011;1025;42.686;23.350;2023-07-31T12:48:56;9.67;;;6.33;;
2039;SDS011;1025;42.686;23.350;2023-07-31T12:51:23;6.23;;;5.73;;
2039;SDS011;1025;42.686;23.350;2023-07-31T12:53:49;5.23;;;4.90;;
2039;SDS011;1025;42.686;23.350;2023-07-31T12:56:15;7.83;;;6.10;;
2039;SDS011;1025;42.686;23.350;2023-07-31T12:58:42;6.23;;;5.63;;
2039;SDS011;1025;42.686;23.350;2023-07-31T13:01:09;6.47;;;5.87;;
2039;SDS011;1025;42.686;23.350;2023-07-31T13:03:37;7.23;;;6.53;;
2039;SDS011;1025;42.686;23.350;2023-07-31T13:06:03;8.90;;;6.27;;
2039;SDS011;1025;42.686;23.350;2023-07-31T13:08:30;6.57;;;5.80;;
2039;SDS011;1025;42.686;23.350;2023-07-31T13:10:57;26.80;;;8.20;;
2039;SDS011;1025;42.686;23.350;2023-07-31T13:13:23;6.47;;;5.93;;
2039;SDS011;1025;42.686;23.350;2023-07-31T13:15:50;10.93;;;5.77;;
2039;SDS011;1025;42.686;23.350;2023-07-31T13:18:16;8.93;;;6.30;;
2039;SDS011;1025;42.686;23.350;2023-07-31T13:20:44;7.70;;;5.33;;
2039;SDS011;1025;42.686;23.350;2023-07-31T13:23:10;11.53;;;6.20;;
2039;SDS011;1025;42.686;23.350;2023-07-31T13:25:37;13.97;;;6.73;;
2039;SDS011;1025;42.686;23.350;2023-07-31T13:28:03;19.03;;;7.30;;
2039;SDS011;1025;42.686;23.350;2023-07-31T13:30:30;5.57;;;5.07;;
2039;SDS011;1025;42.686;23.350;2023-07-31T13:32:56;8.83;;;5.50;;
2039;SDS011;1025;42.686;23.350;2023-07-31T13:35:23;6.10;;;4.80;;
2039;SDS011;1025;42.686;23.350;2023-07-31T13:37:51;5.57;;;5.07;;
2039;SDS011;1025;42.686;23.350;2023-07-31T13:40:17;4.93;;;4.40;;
2039;SDS011;1025;42.686;23.350;2023-07-31T13:42:44;5.27;;;4.90;;
2039;SDS011;1025;42.686;23.350;2023-07-31T13:45:12;7.27;;;5.43;;
2039;SDS011;1025;42.686;23.350;2023-07-31T13:47:38;10.13;;;4.70;;
2039;SDS011;1025;42.686;23.350;2023-07-31T13:50:05;8.23;;;5.17;;
2039;SDS011;1025;42.686;23.350;2023-07-31T13:52:32;4.80;;;4.40;;
2039;SDS011;1025;42.686;23.350;2023-07-31T13:55:00;6.40;;;5.60;;
2039;SDS011;1025;42.686;23.350;2023-07-31T13:57:26;7.60;;;4.53;;
2039;SDS011;1025;42.686;23.350;2023-07-31T13:59:53;5.20;;;4.80;;
2039;SDS011;1025;42.686;23.350;2023-07-31T14:02:20;6.40;;;4.00;;
2039;SDS011;1025;42.686;23.350;2023-07-31T14:04:46;4.60;;;4.10;;
2039;SDS011;1025;42.686;23.350;2023-07-31T14:07:13;4.57;;;4.20;;
2039;SDS011;1025;42.686;23.350;2023-07-31T14:09:39;6.70;;;4.57;;
2039;SDS011;1025;42.686;23.350;2023-07-31T14:12:07;5.10;;;4.70;;
2039;SDS011;1025;42.686;23.350;2023-07-31T14:14:33;5.03;;;4.60;;
2039;SDS011;1025;42.686;23.350;2023-07-31T14:17:00;5.03;;;4.60;;
2039;SDS011;1025;42.686;23.350;2023-07-31T14:19:26;4.77;;;4.37;;
2039;SDS011;1025;42.686;23.350;2023-07-31T14:21:53;4.23;;;4.03;;
2039;SDS011;1025;42.686;23.350;2023-07-31T14:24:19;4.83;;;4.40;;
2039;SDS011;1025;42.686;23.350;2023-07-31T14:26:46;5.33;;;4.93;;
2039;SDS011;1025;42.686;23.350;2023-07-31T14:29:14;5.37;;;4.97;;
2039;SDS011;1025;42.686;23.350;2023-07-31T14:31:40;5.27;;;4.73;;
2039;SDS011;1025;42.686;23.350;2023-07-31T14:34:07;4.87;;;4.37;;
2039;SDS011;1025;42.686;23.350;2023-07-31T14:36:33;5.67;;;5.17;;
2039;SDS011;1025;42.686;23.350;2023-07-31T14:39:00;5.00;;;4.33;;
2039;SDS011;1025;42.686;23.350;2023-07-31T14:41:26;5.53;;;5.03;;
2039;SDS011;1025;42.686;23.350;2023-07-31T14:43:53;6.63;;;5.53;;
2039;SDS011;1025;42.686;23.350;2023-07-31T14:46:21;7.00;;;4.80;;
2039;SDS011;1025;42.686;23.350;2023-07-31T14:48:47;4.30;;;4.00;;
2039;SDS011;1025;42.686;23.350;2023-07-31T14:51:14;4.90;;;4.60;;
2039;SDS011;1025;42.686;23.350;2023-07-31T14:53:41;4.77;;;4.37;;
2039;SDS011;1025;42.686;23.350;2023-07-31T14:56:08;4.70;;;4.30;;